sensor_id;sensor_type;location;lat;lon;timestamp;pressure;altitude;pressure_sealevel;temperature;humidity
67099;BME280;54288;53.046;5.668;2022-09-12T00:01:09;101947.66;;;14.60;97.41
67099;BME280;54288;53.046;5.668;2022-09-12T00:03:37;101948.47;;;14.62;97.20
67099;BME280;54288;53.046;5.668;2022-09-12T00:06:21;101944.09;;;14.62;97.11
67099;BME280;54288;53.046;5.668;2022-09-12T00:08:47;101945.84;;;14.62;97.37
67099;BME280;54288;53.046;5.668;2022-09-12T00:11:14;101943.28;;;14.59;97.74
67099;BME280;54288;53.046;5.668;2022-09-12T00:13:41;101935.44;;;14.54;97.59
67099;BME280;54288;53.046;5.668;2022-09-12T00:16:14;101931.06;;;14.55;97.96
67099;BME280;54288;53.046;5.668;2022-09-12T00:18:40;101922.34;;;14.51;98.18
67099;BME280;54288;53.046;5.668;2022-09-12T00:21:06;101925.91;;;14.49;98.20
67099;BME280;54288;53.046;5.668;2022-09-12T00:23:32;101924.13;;;14.49;97.80
67099;BME280;54288;53.046;5.668;2022-09-12T00:25:58;101930.19;;;14.53;98.63
67099;BME280;54288;53.046;5.668;2022-09-12T00:28:24;101918.69;;;14.57;99.42
67099;BME280;54288;53.046;5.668;2022-09-12T00:30:49;101920.44;;;14.58;99.00
67099;BME280;54288;53.046;5.668;2022-09-12T00:33:16;101910.09;;;14.49;98.50
67099;BME280;54288;53.046;5.668;2022-09-12T00:35:49;101916.94;;;14.57;99.30
67099;BME280;54288;53.046;5.668;2022-09-12T00:38:18;101908.13;;;14.58;99.16
67099;BME280;54288;53.046;5.668;2022-09-12T00:40:44;101909.03;;;14.57;99.00
67099;BME280;54288;53.046;5.668;2022-09-12T00:43:37;101915.00;;;14.65;99.15
67099;BME280;54288;53.046;5.668;2022-09-12T00:46:27;101908.06;;;14.61;99.49
67099;BME280;54288;53.046;5.668;2022-09-12T00:49:00;101909.03;;;14.57;98.69
67099;BME280;54288;53.046;5.668;2022-09-12T00:51:29;101897.72;;;14.51;98.62
67099;BME280;54288;53.046;5.668;2022-09-12T00:53:58;101891.63;;;14.50;98.54
67099;BME280;54288;53.046;5.668;2022-09-12T00:56:28;101895.00;;;14.55;99.06
67099;BME280;54288;53.046;5.668;2022-09-12T00:59:16;101894.94;;;14.58;99.88
67099;BME280;54288;53.046;5.668;2022-09-12T01:01:45;101892.28;;;14.60;100.00
67099;BME280;54288;53.046;5.668;2022-09-12T01:04:13;101888.78;;;14.58;100.00
67099;BME280;54288;53.046;5.668;2022-09-12T01:06:41;101880.00;;;14.59;100.00
67099;BME280;54288;53.046;5.668;2022-09-12T01:09:10;101875.50;;;14.64;100.00
67099;BME280;54288;53.046;5.668;2022-09-12T01:11:39;101880.59;;;14.71;100.00
67099;BME280;54288;53.046;5.668;2022-09-12T01:14:06;101876.22;;;14.72;100.00
67099;BME280;54288;53.046;5.668;2022-09-12T01:16:36;101877.91;;;14.76;100.00
67099;BME280;54288;53.046;5.668;2022-09-12T01:25:09;101878.63;;;14.81;100.00
67099;BME280;54288;53.046;5.668;2022-09-12T01:38:50;101871.59;;;14.83;100.00
67099;BME280;54288;53.046;5.668;2022-09-12T01:44:00;101874.13;;;14.86;100.00
67099;BME280;54288;53.046;5.668;2022-09-12T01:46:52;101870.66;;;14.85;100.00
67099;BME280;54288;53.046;5.668;2022-09-12T01:52:36;101855.84;;;14.78;100.00
67099;BME280;54288;53.046;5.668;2022-09-12T01:55:15;101847.13;;;14.75;100.00
67099;BME280;54288;53.046;5.668;2022-09-12T01:58:11;101851.41;;;14.80;100.00
67099;BME280;54288;53.046;5.668;2022-09-12T02:00:45;101844.44;;;14.78;100.00
67099;BME280;54288;53.046;5.668;2022-09-12T02:03:25;101847.06;;;14.79;100.00
67099;BME280;54288;53.046;5.668;2022-09-12T02:05:57;101839.13;;;14.79;100.00
67099;BME280;54288;53.046;5.668;2022-09-12T02:08:30;101842.72;;;14.77;100.00
67099;BME280;54288;53.046;5.668;2022-09-12T02:11:04;101832.28;;;14.71;99.48
67099;BME280;54288;53.046;5.668;2022-09-12T02:16:30;101822.81;;;14.62;99.56
67099;BME280;54288;53.046;5.668;2022-09-12T02:19:11;101836.69;;;14.70;99.65
67099;BME280;54288;53.046;5.668;2022-09-12T02:21:52;101832.34;;;14.68;99.47
67099;BME280;54288;53.046;5.668;2022-09-12T02:24:21;101835.72;;;14.76;99.47
67099;BME280;54288;53.046;5.668;2022-09-12T02:27:02;101840.97;;;14.76;99.05
67099;BME280;54288;53.046;5.668;2022-09-12T02:29:29;101840.06;;;14.77;98.97
67099;BME280;54288;53.046;5.668;2022-09-12T02:32:04;101842.72;;;14.77;98.90
67099;BME280;54288;53.046;5.668;2022-09-12T02:34:38;101839.19;;;14.76;98.79
67099;BME280;54288;53.046;5.668;2022-09-12T02:37:30;101833.06;;;14.76;98.85
67099;BME280;54288;53.046;5.668;2022-09-12T02:39:59;101829.56;;;14.74;99.28
67099;BME280;54288;53.046;5.668;2022-09-12T02:42:25;101822.44;;;14.79;99.18
67099;BME280;54288;53.046;5.668;2022-09-12T02:44:54;101832.06;;;14.80;98.64
67099;BME280;54288;53.046;5.668;2022-09-12T02:47:56;101828.47;;;14.85;98.79
67099;BME280;54288;53.046;5.668;2022-09-12T02:50:25;101819.63;;;14.88;98.48
67099;BME280;54288;53.046;5.668;2022-09-12T02:52:51;101816.97;;;14.88;98.00
67099;BME280;54288;53.046;5.668;2022-09-12T02:55:25;101823.00;;;14.93;98.07
67099;BME280;54288;53.046;5.668;2022-09-12T02:57:52;101812.53;;;14.90;97.84
67099;BME280;54288;53.046;5.668;2022-09-12T03:00:18;101807.38;;;14.84;97.90
67099;BME280;54288;53.046;5.668;2022-09-12T03:05:59;101800.34;;;14.84;97.81
67099;BME280;54288;53.046;5.668;2022-09-12T03:08:46;101804.75;;;14.84;97.90
67099;BME280;54288;53.046;5.668;2022-09-12T03:22:46;101794.06;;;14.90;97.09
67099;BME280;54288;53.046;5.668;2022-09-12T03:27:55;101800.25;;;14.89;97.40
67099;BME280;54288;53.046;5.668;2022-09-12T03:30:23;101788.84;;;14.87;97.11
67099;BME280;54288;53.046;5.668;2022-09-12T03:32:52;101789.81;;;14.84;97.42
67099;BME280;54288;53.046;5.668;2022-09-12T03:35:22;101788.16;;;14.79;97.43
67099;BME280;54288;53.046;5.668;2022-09-12T03:37:49;101796.09;;;14.77;98.11
67099;BME280;54288;53.046;5.668;2022-09-12T03:40:15;101790.78;;;14.79;98.14
67099;BME280;54288;53.046;5.668;2022-09-12T03:42:41;101792.53;;;14.78;98.25
67099;BME280;54288;53.046;5.668;2022-09-12T03:45:08;101783.78;;;14.78;97.93
67099;BME280;54288;53.046;5.668;2022-09-12T03:47:34;101776.88;;;14.72;98.01
67099;BME280;54288;53.046;5.668;2022-09-12T03:50:00;101784.69;;;14.77;97.40
67099;BME280;54288;53.046;5.668;2022-09-12T03:52:26;101772.41;;;14.76;97.13
67099;BME280;54288;53.046;5.668;2022-09-12T03:54:52;101775.88;;;14.78;97.15
67099;BME280;54288;53.046;5.668;2022-09-12T03:57:18;101791.63;;;14.81;97.07
67099;BME280;54288;53.046;5.668;2022-09-12T03:59:43;101786.41;;;14.79;97.09
67099;BME280;54288;53.046;5.668;2022-09-12T04:02:09;101790.69;;;14.83;97.13
67099;BME280;54288;53.046;5.668;2022-09-12T04:04:39;101784.53;;;14.84;96.60
67099;BME280;54288;53.046;5.668;2022-09-12T04:07:07;101777.50;;;14.83;96.55
67099;BME280;54288;53.046;5.668;2022-09-12T04:09:33;101782.63;;;14.89;96.35
67099;BME280;54288;53.046;5.668;2022-09-12T04:11:59;101773.91;;;14.86;96.36
67099;BME280;54288;53.046;5.668;2022-09-12T04:14:24;101775.59;;;14.90;96.30
67099;BME280;54288;53.046;5.668;2022-09-12T04:16:50;101773.84;;;14.90;95.98
67099;BME280;54288;53.046;5.668;2022-09-12T04:19:15;101775.53;;;14.93;96.15
67099;BME280;54288;53.046;5.668;2022-09-12T04:21:41;101768.47;;;14.93;95.89
67099;BME280;54288;53.046;5.668;2022-09-12T04:24:07;101765.88;;;14.92;96.07
67099;BME280;54288;53.046;5.668;2022-09-12T04:26:32;101779.91;;;14.94;95.82
67099;BME280;54288;53.046;5.668;2022-09-12T04:28:58;101784.28;;;14.95;95.57
67099;BME280;54288;53.046;5.668;2022-09-12T04:31:24;101770.25;;;14.93;95.75
67099;BME280;54288;53.046;5.668;2022-09-12T04:33:55;101779.06;;;14.92;95.70
67099;BME280;54288;53.046;5.668;2022-09-12T04:36:21;101776.34;;;14.95;95.91
67099;BME280;54288;53.046;5.668;2022-09-12T04:38:48;101776.34;;;14.95;95.47
67099;BME280;54288;53.046;5.668;2022-09-12T04:41:21;101770.16;;;14.96;95.64
67099;BME280;54288;53.046;5.668;2022-09-12T04:43:51;101771.22;;;14.89;95.86
67099;BME280;54288;53.046;5.668;2022-09-12T04:46:17;101779.00;;;14.95;95.53
67099;BME280;54288;53.046;5.668;2022-09-12T04:48:47;101778.03;;;14.99;95.42
67099;BME280;54288;53.046;5.668;2022-09-12T04:51:21;101773.63;;;14.98;95.77
67099;BME280;54288;53.046;5.668;2022-09-12T04:53:50;101777.97;;;15.00;95.37
67099;BME280;54288;53.046;5.668;2022-09-12T04:56:18;101777.97;;;15.00;95.42
67099;BME280;54288;53.046;5.668;2022-09-12T04:58:44;101774.41;;;15.03;95.45
67099;BME280;54288;53.046;5.668;2022-09-12T05:01:19;101774.38;;;15.04;95.20
67099;BME280;54288;53.046;5.668;2022-09-12T05:03:46;101777.78;;;15.08;94.71
67099;BME280;54288;53.046;5.668;2022-09-12T05:06:16;101765.56;;;15.04;95.29
67099;BME280;54288;53.046;5.668;2022-09-12T05:08:43;101774.25;;;15.09;94.78
67099;BME280;54288;53.046;5.668;2022-09-12T05:11:12;101777.75;;;15.09;95.18
67099;BME280;54288;53.046;5.668;2022-09-12T05:13:38;101777.81;;;15.06;95.12
67099;BME280;54288;53.046;5.668;2022-09-12T05:16:05;101777.75;;;15.09;95.16
67099;BME280;54288;53.046;5.668;2022-09-12T05:18:33;101781.19;;;15.13;95.06
67099;BME280;54288;53.046;5.668;2022-09-12T05:21:01;101783.94;;;15.08;95.13
67099;BME280;54288;53.046;5.668;2022-09-12T05:23:27;101786.50;;;15.11;95.12
67099;BME280;54288;53.046;5.668;2022-09-12T05:25:55;101781.22;;;15.11;95.53
67099;BME280;54288;53.046;5.668;2022-09-12T05:28:24;101772.50;;;15.09;94.97
67099;BME280;54288;53.046;5.668;2022-09-12T05:31:20;101762.88;;;15.07;95.46
67099;BME280;54288;53.046;5.668;2022-09-12T05:33:49;101762.06;;;15.05;95.43
67099;BME280;54288;53.046;5.668;2022-09-12T05:36:20;101758.41;;;15.09;95.17
67099;BME280;54288;53.046;5.668;2022-09-12T05:38:47;101764.56;;;15.09;95.48
67099;BME280;54288;53.046;5.668;2022-09-12T05:41:15;101767.88;;;15.17;94.93
67099;BME280;54288;53.046;5.668;2022-09-12T05:43:42;101756.44;;;15.18;94.54
67099;BME280;54288;53.046;5.668;2022-09-12T05:46:14;101759.88;;;15.22;94.77
67099;BME280;54288;53.046;5.668;2022-09-12T05:48:42;101760.72;;;15.22;94.45
67099;BME280;54288;53.046;5.668;2022-09-12T05:51:13;101762.50;;;15.22;94.61
67099;BME280;54288;53.046;5.668;2022-09-12T05:54:03;101764.16;;;15.26;94.17
67099;BME280;54288;53.046;5.668;2022-09-12T05:56:31;101766.69;;;15.30;94.41
67099;BME280;54288;53.046;5.668;2022-09-12T05:59:03;101766.63;;;15.33;94.01
67099;BME280;54288;53.046;5.668;2022-09-12T06:01:31;101762.22;;;15.34;94.04
67099;BME280;54288;53.046;5.668;2022-09-12T06:03:59;101771.84;;;15.36;94.20
67099;BME280;54288;53.046;5.668;2022-09-12T06:06:27;101767.41;;;15.37;93.81
67099;BME280;54288;53.046;5.668;2022-09-12T06:08:56;101757.75;;;15.37;93.91
67099;BME280;54288;53.046;5.668;2022-09-12T06:11:25;101767.25;;;15.43;93.93
67099;BME280;54288;53.046;5.668;2022-09-12T06:13:52;101760.13;;;15.46;93.27
67099;BME280;54288;53.046;5.668;2022-09-12T06:16:23;101762.69;;;15.49;93.29
67099;BME280;54288;53.046;5.668;2022-09-12T06:19:01;101762.56;;;15.54;93.40
67099;BME280;54288;53.046;5.668;2022-09-12T06:21:28;101760.94;;;15.50;93.17
67099;BME280;54288;53.046;5.668;2022-09-12T06:23:56;101759.94;;;15.54;92.36
67099;BME280;54288;53.046;5.668;2022-09-12T06:26:23;101755.38;;;15.60;92.37
67099;BME280;54288;53.046;5.668;2022-09-12T06:28:51;101756.22;;;15.61;92.26
67099;BME280;54288;53.046;5.668;2022-09-12T06:31:25;101745.59;;;15.64;92.20
67099;BME280;54288;53.046;5.668;2022-09-12T06:33:52;101750.00;;;15.63;91.79
67099;BME280;54288;53.046;5.668;2022-09-12T06:36:28;101753.31;;;15.71;91.87
67099;BME280;54288;53.046;5.668;2022-09-12T06:39:15;101757.81;;;15.68;91.10
67099;BME280;54288;53.046;5.668;2022-09-12T06:41:41;101759.50;;;15.70;91.86
67099;BME280;54288;53.046;5.668;2022-09-12T06:44:13;101746.38;;;15.67;91.14
67099;BME280;54288;53.046;5.668;2022-09-12T06:46:40;101759.44;;;15.72;91.53
67099;BME280;54288;53.046;5.668;2022-09-12T06:49:06;101764.81;;;15.69;91.32
67099;BME280;54288;53.046;5.668;2022-09-12T06:51:32;101762.03;;;15.73;91.00
67099;BME280;54288;53.046;5.668;2022-09-12T06:54:00;101761.13;;;15.74;90.75
67099;BME280;54288;53.046;5.668;2022-09-12T06:56:27;101766.31;;;15.79;91.27
67099;BME280;54288;53.046;5.668;2022-09-12T06:58:55;101766.22;;;15.82;90.59
67099;BME280;54288;53.046;5.668;2022-09-12T07:01:27;101751.09;;;15.87;90.68
67099;BME280;54288;53.046;5.668;2022-09-12T07:03:58;101751.53;;;16.02;90.21
67099;BME280;54288;53.046;5.668;2022-09-12T07:06:27;101747.03;;;16.06;89.30
67099;BME280;54288;53.046;5.668;2022-09-12T07:09:01;101749.59;;;16.09;89.55
67099;BME280;54288;53.046;5.668;2022-09-12T07:11:30;101747.66;;;16.15;88.97
67099;BME280;54288;53.046;5.668;2022-09-12T07:14:01;101749.09;;;16.25;88.88
67099;BME280;54288;53.046;5.668;2022-09-12T07:16:28;101744.69;;;16.26;89.47
67099;BME280;54288;53.046;5.668;2022-09-12T07:18:59;101741.66;;;16.41;89.10
67099;BME280;54288;53.046;5.668;2022-09-12T07:21:26;101742.97;;;16.55;87.81
67099;BME280;54288;53.046;5.668;2022-09-12T07:23:52;101737.22;;;16.69;87.70
67099;BME280;54288;53.046;5.668;2022-09-12T07:26:20;101741.84;;;16.90;87.60
67099;BME280;54288;53.046;5.668;2022-09-12T07:28:50;101741.16;;;17.11;86.25
67099;BME280;54288;53.046;5.668;2022-09-12T07:31:19;101745.91;;;17.26;86.22
67099;BME280;54288;53.046;5.668;2022-09-12T07:33:45;101738.59;;;17.34;85.06
67099;BME280;54288;53.046;5.668;2022-09-12T07:36:14;101739.56;;;17.31;84.68
67099;BME280;54288;53.046;5.668;2022-09-12T07:38:41;101736.88;;;17.33;85.63
67099;BME280;54288;53.046;5.668;2022-09-12T07:41:16;101751.72;;;17.38;85.15
67099;BME280;54288;53.046;5.668;2022-09-12T07:43:43;101742.38;;;17.53;85.07
67099;BME280;54288;53.046;5.668;2022-09-12T07:46:09;101746.44;;;17.63;83.94
67099;BME280;54288;53.046;5.668;2022-09-12T07:48:36;101741.69;;;17.72;83.45
67099;BME280;54288;53.046;5.668;2022-09-12T07:51:05;101743.84;;;17.86;83.66
67099;BME280;54288;53.046;5.668;2022-09-12T07:53:34;101736.47;;;17.94;82.76
67099;BME280;54288;53.046;5.668;2022-09-12T07:56:00;101730.84;;;18.26;81.48
67099;BME280;54288;53.046;5.668;2022-09-12T07:58:28;101728.69;;;18.37;80.85
67099;BME280;54288;53.046;5.668;2022-09-12T08:01:04;101738.38;;;18.59;80.77
67099;BME280;54288;53.046;5.668;2022-09-12T08:03:30;101735.34;;;18.70;80.49
67099;BME280;54288;53.046;5.668;2022-09-12T08:06:06;101736.91;;;18.52;79.33
67099;BME280;54288;53.046;5.668;2022-09-12T08:08:32;101742.34;;;18.49;79.33
67099;BME280;54288;53.046;5.668;2022-09-12T08:10:59;101748.44;;;18.51;79.50
67099;BME280;54288;53.046;5.668;2022-09-12T08:13:27;101757.84;;;18.60;79.21
67099;BME280;54288;53.046;5.668;2022-09-12T08:15:57;101753.47;;;18.59;79.21
67099;BME280;54288;53.046;5.668;2022-09-12T08:18:25;101751.75;;;18.58;79.58
67099;BME280;54288;53.046;5.668;2022-09-12T08:20:58;101748.16;;;18.59;78.86
67099;BME280;54288;53.046;5.668;2022-09-12T08:23:25;101749.53;;;18.90;78.70
67099;BME280;54288;53.046;5.668;2022-09-12T08:26:00;101753.56;;;19.22;78.39
67099;BME280;54288;53.046;5.668;2022-09-12T08:28:29;101746.59;;;19.18;77.15
67099;BME280;54288;53.046;5.668;2022-09-12T08:31:06;101752.31;;;19.09;77.24
67099;BME280;54288;53.046;5.668;2022-09-12T08:33:33;101754.97;;;19.09;78.81
67099;BME280;54288;53.046;5.668;2022-09-12T08:36:09;101757.94;;;19.23;77.29
67099;BME280;54288;53.046;5.668;2022-09-12T08:38:37;101755.72;;;19.34;77.53
67099;BME280;54288;53.046;5.668;2022-09-12T08:46:35;101744.81;;;19.80;73.83
67099;BME280;54288;53.046;5.668;2022-09-12T08:49:09;101750.47;;;19.92;73.34
67099;BME280;54288;53.046;5.668;2022-09-12T08:51:38;101753.06;;;19.74;73.83
67099;BME280;54288;53.046;5.668;2022-09-12T08:54:18;101741.78;;;19.89;73.85
67099;BME280;54288;53.046;5.668;2022-09-12T08:56:47;101731.00;;;19.92;73.50
67099;BME280;54288;53.046;5.668;2022-09-12T08:59:12;101749.66;;;19.90;73.64
67099;BME280;54288;53.046;5.668;2022-09-12T09:01:43;101748.28;;;19.82;73.61
67099;BME280;54288;53.046;5.668;2022-09-12T09:18:01;101721.50;;;20.25;72.47
67099;BME280;54288;53.046;5.668;2022-09-12T09:23:19;101723.03;;;20.67;70.98
67099;BME280;54288;53.046;5.668;2022-09-12T09:26:05;101714.53;;;21.13;69.91
67099;BME280;54288;53.046;5.668;2022-09-12T09:28:50;101706.31;;;21.52;67.78
67099;BME280;54288;53.046;5.668;2022-09-12T09:31:20;101714.47;;;21.83;66.82
67099;BME280;54288;53.046;5.668;2022-09-12T09:33:51;101712.28;;;21.74;65.63
67099;BME280;54288;53.046;5.668;2022-09-12T09:36:38;101704.09;;;21.94;64.86
67099;BME280;54288;53.046;5.668;2022-09-12T09:44:46;101699.00;;;22.37;63.23
67099;BME280;54288;53.046;5.668;2022-09-12T09:47:14;101708.41;;;22.60;63.68
67099;BME280;54288;53.046;5.668;2022-09-12T09:49:40;101712.84;;;22.61;60.65
67099;BME280;54288;53.046;5.668;2022-09-12T09:52:07;101704.47;;;22.67;61.22
67099;BME280;54288;53.046;5.668;2022-09-12T09:54:57;101703.94;;;22.76;60.09
67099;BME280;54288;53.046;5.668;2022-09-12T09:59:58;101693.69;;;22.68;61.32
67099;BME280;54288;53.046;5.668;2022-09-12T10:05:28;101700.88;;;22.97;59.74
67099;BME280;54288;53.046;5.668;2022-09-12T10:07:54;101684.50;;;23.19;59.20
67099;BME280;54288;53.046;5.668;2022-09-12T10:10:20;101686.72;;;23.11;57.53
67099;BME280;54288;53.046;5.668;2022-09-12T10:12:49;101671.78;;;22.93;57.91
67099;BME280;54288;53.046;5.668;2022-09-12T10:15:24;101676.59;;;23.02;58.56
67099;BME280;54288;53.046;5.668;2022-09-12T10:17:54;101679.19;;;23.33;58.98
67099;BME280;54288;53.046;5.668;2022-09-12T10:20:40;101678.59;;;23.28;58.63
67099;BME280;54288;53.046;5.668;2022-09-12T10:23:33;101671.75;;;23.24;58.08
67099;BME280;54288;53.046;5.668;2022-09-12T10:26:08;101672.44;;;23.41;57.82
67099;BME280;54288;53.046;5.668;2022-09-12T10:28:42;101657.28;;;23.56;57.23
67099;BME280;54288;53.046;5.668;2022-09-12T10:31:15;101658.06;;;23.72;57.15
67099;BME280;54288;53.046;5.668;2022-09-12T10:33:51;101659.09;;;23.69;56.21
67099;BME280;54288;53.046;5.668;2022-09-12T10:36:22;101654.44;;;23.59;56.59
67099;BME280;54288;53.046;5.668;2022-09-12T10:38:57;101645.03;;;23.38;57.10
67099;BME280;54288;53.046;5.668;2022-09-12T10:41:34;101636.72;;;23.28;57.76
67099;BME280;54288;53.046;5.668;2022-09-12T10:44:14;101645.41;;;23.46;56.06
67099;BME280;54288;53.046;5.668;2022-09-12T10:46:40;101635.09;;;23.40;55.91
67099;BME280;54288;53.046;5.668;2022-09-12T10:49:22;101627.44;;;23.20;56.68
67099;BME280;54288;53.046;5.668;2022-09-12T10:51:50;101632.69;;;23.06;57.33
67099;BME280;54288;53.046;5.668;2022-09-12T10:54:19;101637.28;;;23.04;57.93
67099;BME280;54288;53.046;5.668;2022-09-12T10:57:48;101643.03;;;22.82;57.71
67099;BME280;54288;53.046;5.668;2022-09-12T11:02:28;101652.66;;;22.85;57.11
67099;BME280;54288;53.046;5.668;2022-09-12T11:13:20;101648.88;;;23.48;55.07
67099;BME280;54288;53.046;5.668;2022-09-12T11:18:55;101645.41;;;23.46;55.88
67099;BME280;54288;53.046;5.668;2022-09-12T11:27:23;101626.16;;;23.83;55.33
67099;BME280;54288;53.046;5.668;2022-09-12T11:29:58;101619.75;;;23.99;53.97
67099;BME280;54288;53.046;5.668;2022-09-12T11:46:20;101602.25;;;24.22;53.09
67099;BME280;54288;53.046;5.668;2022-09-12T11:57:07;101604.97;;;23.94;54.71
67099;BME280;54288;53.046;5.668;2022-09-12T11:59:44;101600.44;;;23.94;53.54
67099;BME280;54288;53.046;5.668;2022-09-12T12:05:28;101604.38;;;23.75;54.24
67099;BME280;54288;53.046;5.668;2022-09-12T12:07:58;101603.81;;;23.70;54.48
67099;BME280;54288;53.046;5.668;2022-09-12T12:10:31;101602.47;;;23.77;54.18
67099;BME280;54288;53.046;5.668;2022-09-12T12:13:04;101606.47;;;23.70;54.61
67099;BME280;54288;53.046;5.668;2022-09-12T12:15:35;101595.56;;;23.73;54.65
67099;BME280;54288;53.046;5.668;2022-09-12T12:18:06;101598.84;;;23.92;54.85
67099;BME280;54288;53.046;5.668;2022-09-12T12:20:33;101598.66;;;24.09;54.84
67099;BME280;54288;53.046;5.668;2022-09-12T12:22:59;101595.97;;;23.95;54.04
67099;BME280;54288;53.046;5.668;2022-09-12T12:25:52;101595.41;;;23.76;53.77
67099;BME280;54288;53.046;5.668;2022-09-12T12:31:05;101595.56;;;23.73;53.51
67099;BME280;54288;53.046;5.668;2022-09-12T12:36:02;101591.88;;;23.89;53.89
67099;BME280;54288;53.046;5.668;2022-09-12T12:38:32;101588.31;;;23.61;53.79
67099;BME280;54288;53.046;5.668;2022-09-12T12:46:11;101566.75;;;23.92;53.83
67099;BME280;54288;53.046;5.668;2022-09-12T12:49:07;101575.59;;;24.06;54.00
67099;BME280;54288;53.046;5.668;2022-09-12T13:05:43;101551.53;;;23.92;54.84
67099;BME280;54288;53.046;5.668;2022-09-12T13:10:53;101540.53;;;23.83;55.57
67099;BME280;54288;53.046;5.668;2022-09-12T13:13:48;101538.63;;;23.85;55.21
67099;BME280;54288;53.046;5.668;2022-09-12T13:16:34;101531.47;;;23.85;56.09
67099;BME280;54288;53.046;5.668;2022-09-12T13:19:05;101523.53;;;23.84;55.98
67099;BME280;54288;53.046;5.668;2022-09-12T13:21:32;101527.69;;;23.61;56.78
67099;BME280;54288;53.046;5.668;2022-09-12T13:24:03;101520.63;;;23.60;56.09
67099;BME280;54288;53.046;5.668;2022-09-12T13:26:39;101517.03;;;23.74;56.36
67099;BME280;54288;53.046;5.668;2022-09-12T13:31:38;101519.19;;;24.09;55.14
67099;BME280;54288;53.046;5.668;2022-09-12T13:34:08;101505.00;;;24.21;55.00
67099;BME280;54288;53.046;5.668;2022-09-12T13:42:49;101512.94;;;24.23;54.96
67099;BME280;54288;53.046;5.668;2022-09-12T13:45:23;101515.19;;;24.29;54.96
67099;BME280;54288;53.046;5.668;2022-09-12T13:48:00;101511.28;;;24.34;54.27
67099;BME280;54288;53.046;5.668;2022-09-12T13:50:32;101507.16;;;24.29;54.45
67099;BME280;54288;53.046;5.668;2022-09-12T13:53:06;101501.50;;;24.33;53.26
67099;BME280;54288;53.046;5.668;2022-09-12T13:55:39;101504.31;;;24.32;54.37
67099;BME280;54288;53.046;5.668;2022-09-12T13:58:27;101492.00;;;24.15;54.44
67099;BME280;54288;53.046;5.668;2022-09-12T14:01:13;101497.84;;;24.22;54.14
67099;BME280;54288;53.046;5.668;2022-09-12T14:03:42;101500.94;;;24.02;53.44
67099;BME280;54288;53.046;5.668;2022-09-12T14:06:36;101482.34;;;24.00;53.90
67099;BME280;54288;53.046;5.668;2022-09-12T14:09:13;101470.19;;;24.21;54.62
67099;BME280;54288;53.046;5.668;2022-09-12T14:11:40;101493.53;;;24.19;53.79
67099;BME280;54288;53.046;5.668;2022-09-12T14:14:28;101492.34;;;23.97;55.08
67099;BME280;54288;53.046;5.668;2022-09-12T14:16:57;101488.75;;;23.98;55.29
67099;BME280;54288;53.046;5.668;2022-09-12T14:19:24;101475.47;;;23.82;54.33
67099;BME280;54288;53.046;5.668;2022-09-12T14:21:55;101482.81;;;23.79;54.88
67099;BME280;54288;53.046;5.668;2022-09-12T14:24:22;101479.22;;;23.66;54.55
67099;BME280;54288;53.046;5.668;2022-09-12T14:26:51;101476.00;;;23.61;55.83
67099;BME280;54288;53.046;5.668;2022-09-12T14:29:19;101472.09;;;23.52;55.34
67099;BME280;54288;53.046;5.668;2022-09-12T14:32:00;101458.50;;;23.69;56.21
67099;BME280;54288;53.046;5.668;2022-09-12T14:34:27;101456.28;;;23.76;56.07
67099;BME280;54288;53.046;5.668;2022-09-12T14:36:54;101463.00;;;23.69;55.31
67099;BME280;54288;53.046;5.668;2022-09-12T14:42:05;101454.38;;;23.78;56.71
67099;BME280;54288;53.046;5.668;2022-09-12T14:44:33;101455.66;;;23.85;55.85
67099;BME280;54288;53.046;5.668;2022-09-12T14:47:12;101450.16;;;23.74;55.75
67099;BME280;54288;53.046;5.668;2022-09-12T14:49:39;101453.84;;;23.59;55.55
67099;BME280;54288;53.046;5.668;2022-09-12T14:52:24;101453.19;;;23.55;57.04
67099;BME280;54288;53.046;5.668;2022-09-12T14:55:19;101444.88;;;23.60;56.19
67099;BME280;54288;53.046;5.668;2022-09-12T14:58:26;101439.31;;;23.63;56.17
67099;BME280;54288;53.046;5.668;2022-09-12T15:05:56;101437.72;;;23.46;55.56
67099;BME280;54288;53.046;5.668;2022-09-12T15:08:24;101442.41;;;23.29;56.59
67099;BME280;54288;53.046;5.668;2022-09-12T15:10:50;101433.28;;;23.19;56.20
67099;BME280;54288;53.046;5.668;2022-09-12T15:13:27;101427.81;;;23.20;57.44
67099;BME280;54288;53.046;5.668;2022-09-12T15:15:57;101416.47;;;23.17;56.89
67099;BME280;54288;53.046;5.668;2022-09-12T15:18:26;101425.84;;;23.24;57.41
67099;BME280;54288;53.046;5.668;2022-09-12T15:21:00;101408.84;;;23.25;56.03
67099;BME280;54288;53.046;5.668;2022-09-12T15:25:59;101404.25;;;23.27;56.26
67099;BME280;54288;53.046;5.668;2022-09-12T15:28:25;101408.34;;;23.32;56.38
67099;BME280;54288;53.046;5.668;2022-09-12T15:30:54;101397.38;;;23.23;56.54
67099;BME280;54288;53.046;5.668;2022-09-12T15:33:22;101405.97;;;23.28;56.41
67099;BME280;54288;53.046;5.668;2022-09-12T15:35:49;101406.81;;;23.28;56.46
67099;BME280;54288;53.046;5.668;2022-09-12T15:38:15;101401.00;;;23.08;56.59
67099;BME280;54288;53.046;5.668;2022-09-12T15:40:41;101400.22;;;23.06;56.34
67099;BME280;54288;53.046;5.668;2022-09-12T15:43:10;101399.56;;;23.02;56.51
67099;BME280;54288;53.046;5.668;2022-09-12T15:45:37;101390.13;;;22.97;56.94
67099;BME280;54288;53.046;5.668;2022-09-12T15:48:02;101394.59;;;22.96;57.11
67099;BME280;54288;53.046;5.668;2022-09-12T15:50:29;101393.75;;;22.96;57.46
67099;BME280;54288;53.046;5.668;2022-09-12T15:52:55;101385.44;;;23.00;57.21
67099;BME280;54288;53.046;5.668;2022-09-12T15:55:29;101375.91;;;23.10;57.86
67099;BME280;54288;53.046;5.668;2022-09-12T15:57:57;101376.88;;;23.09;57.39
67099;BME280;54288;53.046;5.668;2022-09-12T16:00:23;101383.44;;;23.04;57.46